Terminal Aerodrome Forecast
Issued by NWS Portland, OR

Home | Current Version | Previous Version | Text Only | Print | Product List | Glossary On
Versions: 1 2 3 4 5 6 7 8 9 10 11 12 13 14 15 16 17 18 19 20 21 22 23 24 25
000
FTUS46 KPQR 210520
TAFPDX
TAF
KPDX 210520Z 2106/2206 VRB03KT P6SM FEW008 SCT025 BKN040
     FM211000 VRB03KT 3SM BR SCT008 OVC025
     FM211900 30004KT P6SM BKN035=

USA.gov is the U.S. government's official web portal to all federal, state and local government web resources and services.